Overview Statistics Trail Chart Weather Telemetry Raw packets
 

This is the latest recevied weather packets stored in our database for station/object ED1ZAI-13. If no packets are shown the sender has not sent any weather packets the latest 10 day(s).

<< 17 18 19 20 21 22 23 >>
Time Temp. Humidity Pressure Rain* Wind** Luminosity Snow
1788344849 28.33° C 35% 1022.3 hPa - - - -
1788344249 27.78° C 40% 1020.5 hPa - - - -
1788343648 30° C 38% 1020.5 hPa - - - -
1788343065 27.78° C 43% 1018.4 hPa - - - -
1788342450 30° C 38% 1020.8 hPa - - - -
1788341849 27.78° C 45% 1017.3 hPa - - - -
1788341249 30° C 40% 1019.9 hPa - - - -
1788340649 30° C 40% 1020 hPa - - - -
1788340049 28.89° C 43% 1017.7 hPa - - - -
1788339448 26.67° C 47% 1015.7 hPa - - - -
1788338848 27.78° C 40% 1017 hPa - - - -
1788338250 27.78° C 44% 1017.4 hPa - - - -
1788337649 26.67° C 45% 1016 hPa - - - -
1788337049 25.56° C 47% 1014.8 hPa - - - -
1788336449 23.89° C 52% 1011.9 hPa - - - -
1788335848 22.78° C 56% 1009.2 hPa - - - -
1788335248 20° C 64% 1005.4 hPa - - - -
1788334649 18.33° C 67% 1005.1 hPa - - - -
1788334198 17.78° C 70% 1004.6 hPa - - - -
1788334048 17.78° C 70% 1004.6 hPa - - - -
1788333448 16.67° C 71% 1004.7 hPa - - - -
1788332997 16.67° C 71% 1004.6 hPa - - - -
1788332850 16.67° C 71% 1004.6 hPa - - - -
1788332249 17.22° C 71% 1004.4 hPa - - - -
1788331797 17.22° C 71% 1004.4 hPa - - - -

* Rain since midnight (hover to see other rain measurements)
** Current wind speed in m/s (hover to see current wind gust speed)